createdAt,value
2018-07-05T00:00:59.525Z,0
2018-07-05T00:01:59.508Z,0
2018-07-05T00:02:58.972Z,0
2018-07-05T00:03:59.481Z,0
2018-07-05T00:04:59.490Z,0
2018-07-05T00:05:59.466Z,0
2018-07-05T00:06:59.468Z,0
2018-07-05T00:07:59.722Z,0
2018-07-05T00:08:58.912Z,0
2018-07-05T00:09:59.439Z,0
2018-07-05T00:10:59.422Z,0
2018-07-05T00:11:58.881Z,0
2018-07-05T00:12:58.873Z,0
2018-07-05T00:13:59.134Z,0
2018-07-05T00:14:59.121Z,0
2018-07-05T00:15:59.387Z,0
2018-07-05T00:16:59.104Z,0
2018-07-05T00:17:59.622Z,0
2018-07-05T00:18:59.353Z,0
2018-07-05T00:19:59.080Z,0
2018-07-05T00:20:59.069Z,0
2018-07-05T00:21:59.324Z,0
2018-07-05T00:22:59.050Z,0
2018-07-05T00:23:59.314Z,0
2018-07-05T00:24:59.290Z,0
2018-07-05T00:25:59.283Z,0
2018-07-05T00:26:59.021Z,0
2018-07-05T00:27:59.017Z,0
2018-07-05T00:28:59.256Z,0
2018-07-05T00:29:58.976Z,0
2018-07-05T00:30:59.235Z,0
2018-07-05T00:31:59.228Z,0
2018-07-05T00:32:58.954Z,0
2018-07-05T00:33:59.470Z,0
2018-07-05T00:34:58.934Z,0
2018-07-05T00:35:58.936Z,0
2018-07-05T00:36:58.912Z,0
2018-07-05T00:37:59.177Z,0
2018-07-05T00:38:59.155Z,0
2018-07-05T00:39:58.891Z,0
2018-07-05T00:40:59.136Z,0
2018-07-05T00:41:58.341Z,0
2018-07-05T00:42:58.866Z,0
2018-07-05T00:43:59.110Z,0
2018-07-05T00:44:59.366Z,0
2018-07-05T00:45:59.365Z,0
2018-07-05T00:46:58.554Z,0
2018-07-05T00:47:58.803Z,0
2018-07-05T00:48:59.105Z,0
2018-07-05T00:49:58.526Z,0
2018-07-05T00:50:59.045Z,0
2018-07-05T00:51:59.033Z,0
2018-07-05T00:52:58.500Z,0
2018-07-05T00:53:59.015Z,0
2018-07-05T00:54:59.020Z,0
2018-07-05T00:55:58.216Z,0
2018-07-05T00:56:59.309Z,0
2018-07-05T00:57:59.248Z,0
2018-07-05T00:58:58.702Z,0
2018-07-05T00:59:58.960Z,0
2018-07-05T01:00:59.212Z,0
2018-07-05T01:01:58.416Z,0
2018-07-05T01:02:58.929Z,0
2018-07-05T01:03:58.656Z,0
2018-07-05T01:04:59.174Z,0
2018-07-05T01:05:58.907Z,0
2018-07-05T01:06:58.363Z,0
2018-07-05T01:07:58.877Z,0
2018-07-05T01:08:58.872Z,0
2018-07-05T01:09:58.865Z,0
2018-07-05T01:10:58.594Z,0
2018-07-05T01:11:58.853Z,0
2018-07-05T01:12:58.568Z,0
2018-07-05T01:13:58.819Z,0
2018-07-05T01:14:58.813Z,0
2018-07-05T01:15:58.544Z,0
2018-07-05T01:16:58.533Z,0
2018-07-05T01:17:58.792Z,0
2018-07-05T01:18:58.771Z,0
2018-07-05T01:19:58.500Z,0
2018-07-05T01:20:58.748Z,0
2018-07-05T01:21:58.739Z,0
2018-07-05T01:22:58.995Z,0
2018-07-05T01:23:58.451Z,0
2018-07-05T01:24:58.443Z,0
2018-07-05T01:25:58.437Z,0
2018-07-05T01:26:58.432Z,0
2018-07-05T01:27:58.693Z,0
2018-07-05T01:28:58.937Z,0
2018-07-05T01:29:58.663Z,0
2018-07-05T01:30:58.647Z,0
2018-07-05T01:31:58.377Z,0
2018-07-05T01:32:58.632Z,0
2018-07-05T01:33:58.887Z,0
2018-07-05T01:34:58.612Z,0
2018-07-05T01:35:58.603Z,0
2018-07-05T01:36:58.324Z,0
2018-07-05T01:37:58.585Z,0
2018-07-05T01:38:58.579Z,0
2018-07-05T01:39:58.559Z,0
2018-07-05T01:40:58.556Z,0
2018-07-05T01:41:58.814Z,0
2018-07-05T01:42:58.539Z,0
2018-07-05T01:43:58.522Z,0
2018-07-05T01:44:58.258Z,0
2018-07-05T01:45:58.509Z,0
2018-07-05T01:46:58.516Z,0
2018-07-05T01:47:58.491Z,0
2018-07-05T01:48:58.473Z,0
2018-07-05T01:49:58.465Z,0
2018-07-05T01:50:57.929Z,0
2018-07-05T01:51:58.699Z,0
2018-07-05T01:52:58.171Z,0
2018-07-05T01:53:58.426Z,0
2018-07-05T01:54:58.413Z,0
2018-07-05T01:55:57.876Z,0
2018-07-05T01:56:57.865Z,0
2018-07-05T01:57:58.376Z,0
2018-07-05T01:58:58.639Z,0
2018-07-05T01:59:58.632Z,0
2018-07-05T02:00:58.082Z,0
2018-07-05T02:01:58.352Z,0
2018-07-05T02:02:58.335Z,0
2018-07-05T02:03:58.603Z,0
2018-07-05T02:04:58.304Z,0
2018-07-05T02:05:58.306Z,0
2018-07-05T02:06:58.310Z,0
2018-07-05T02:07:58.016Z,0
2018-07-05T02:08:58.272Z,0
2018-07-05T02:09:58.000Z,0
2018-07-05T02:10:58.523Z,0
2018-07-05T02:11:58.240Z,0
2018-07-05T02:12:57.967Z,0
2018-07-05T02:13:57.693Z,0
2018-07-05T02:14:58.208Z,0
2018-07-05T02:15:58.516Z,0
2018-07-05T02:16:58.458Z,0
2018-07-05T02:17:58.186Z,0
2018-07-05T02:18:57.903Z,0
2018-07-05T02:19:58.476Z,0
2018-07-05T02:20:57.886Z,0
2018-07-05T02:21:58.135Z,0
2018-07-05T02:22:58.409Z,0
2018-07-05T02:23:57.849Z,0
2018-07-05T02:24:57.841Z,0
2018-07-05T02:25:58.107Z,0
2018-07-05T02:26:57.824Z,0
2018-07-05T02:27:57.553Z,0
2018-07-05T02:28:57.537Z,0
2018-07-05T02:29:58.053Z,0
2018-07-05T02:30:58.045Z,0
2018-07-05T02:31:57.771Z,0
2018-07-05T02:32:57.758Z,0
2018-07-05T02:33:57.509Z,0
2018-07-05T02:34:57.770Z,0
2018-07-05T02:35:57.750Z,0
2018-07-05T02:36:57.988Z,0
2018-07-05T02:37:57.980Z,0
2018-07-05T02:38:57.433Z,0
2018-07-05T02:39:57.956Z,0
2018-07-05T02:40:57.960Z,0
2018-07-05T02:41:57.411Z,0
2018-07-05T02:42:57.658Z,0
2018-07-05T02:43:57.650Z,0
2018-07-05T02:44:57.909Z,0
2018-07-05T02:45:58.150Z,0
2018-07-05T02:46:57.876Z,0
2018-07-05T02:47:57.890Z,0
2018-07-05T02:48:58.161Z,0
2018-07-05T02:49:57.591Z,0
2018-07-05T02:50:57.854Z,0
2018-07-05T02:51:57.301Z,0
2018-07-05T02:52:57.551Z,0
2018-07-05T02:53:57.810Z,0
2018-07-05T02:54:58.079Z,0
2018-07-05T02:55:57.788Z,0
2018-07-05T02:56:57.779Z,0
2018-07-05T02:57:57.770Z,0
2018-07-05T02:58:57.776Z,0
2018-07-05T02:59:57.749Z,0
2018-07-05T03:00:58.007Z,0
2018-07-05T03:01:57.982Z,0
2018-07-05T03:02:57.973Z,0
2018-07-05T03:03:57.719Z,0
2018-07-05T03:04:57.489Z,0
2018-07-05T03:05:57.425Z,0
2018-07-05T03:06:57.674Z,0
2018-07-05T03:07:57.398Z,0
2018-07-05T03:08:57.388Z,0
2018-07-05T03:09:57.950Z,0
2018-07-05T03:10:57.360Z,0
2018-07-05T03:11:57.605Z,0
2018-07-05T03:12:57.617Z,0
2018-07-05T03:13:57.587Z,0
2018-07-05T03:14:57.586Z,0
2018-07-05T03:15:57.588Z,0
2018-07-05T03:16:57.297Z,0
2018-07-05T03:17:57.554Z,0
2018-07-05T03:18:57.537Z,0
2018-07-05T03:19:57.260Z,0
2018-07-05T03:20:57.528Z,0
2018-07-05T03:21:56.979Z,0
2018-07-05T03:22:57.242Z,0
2018-07-05T03:23:57.743Z,5
2018-07-05T03:24:57.476Z,5
2018-07-05T03:25:57.199Z,5
2018-07-05T03:26:57.446Z,5
2018-07-05T03:27:57.698Z,5
2018-07-05T03:28:57.420Z,5
2018-07-05T03:29:56.888Z,5
2018-07-05T03:30:57.404Z,5
2018-07-05T03:31:56.884Z,5
2018-07-05T03:32:57.382Z,5
2018-07-05T03:33:57.365Z,5
2018-07-05T03:34:57.103Z,5
2018-07-05T03:35:57.359Z,10
2018-07-05T03:36:57.079Z,10
2018-07-05T03:37:57.069Z,10
2018-07-05T03:38:57.578Z,10
2018-07-05T03:39:57.305Z,10
2018-07-05T03:40:57.031Z,10
2018-07-05T03:41:57.887Z,10
2018-07-05T03:42:57.577Z,10
2018-07-05T03:43:57.521Z,10
2018-07-05T03:44:57.253Z,15
2018-07-05T03:45:56.971Z,15
2018-07-05T03:46:57.227Z,15
2018-07-05T03:47:56.693Z,15
2018-07-05T03:48:56.940Z,15
2018-07-05T03:49:56.931Z,15
2018-07-05T03:50:56.929Z,15
2018-07-05T03:51:57.182Z,20
2018-07-05T03:52:57.468Z,20
2018-07-05T03:53:56.623Z,20
2018-07-05T03:54:56.873Z,20
2018-07-05T03:55:56.868Z,20
2018-07-05T03:56:57.392Z,20
2018-07-05T03:57:57.374Z,20
2018-07-05T03:58:56.836Z,20
2018-07-05T03:59:57.348Z,20
2018-07-05T04:00:56.817Z,25
2018-07-05T04:01:57.328Z,25
2018-07-05T04:02:57.085Z,25
2018-07-05T04:03:57.039Z,25
2018-07-05T04:04:57.049Z,25
2018-07-05T04:05:57.283Z,25
2018-07-05T04:06:56.745Z,25
2018-07-05T04:07:57.008Z,25
2018-07-05T04:08:56.724Z,25
2018-07-05T04:09:56.713Z,25
2018-07-05T04:10:56.709Z,30
2018-07-05T04:11:57.227Z,30
2018-07-05T04:12:56.945Z,30
2018-07-05T04:13:56.662Z,30
2018-07-05T04:14:57.191Z,30
2018-07-05T04:15:57.113Z,30
2018-07-05T04:16:56.637Z,30
2018-07-05T04:17:56.628Z,30
2018-07-05T04:18:56.875Z,30
2018-07-05T04:19:56.869Z,30
2018-07-05T04:20:56.611Z,30
2018-07-05T04:21:57.115Z,30
2018-07-05T04:22:56.844Z,30
2018-07-05T04:23:56.593Z,25
2018-07-05T04:24:57.140Z,30
2018-07-05T04:25:56.542Z,30
2018-07-05T04:26:56.792Z,30
2018-07-05T04:27:57.055Z,30
2018-07-05T04:28:56.247Z,30
2018-07-05T04:29:56.762Z,30
2018-07-05T04:30:56.756Z,30
2018-07-05T04:31:56.752Z,30
2018-07-05T04:32:56.992Z,30
2018-07-05T04:33:56.720Z,30
2018-07-05T04:34:56.988Z,30
2018-07-05T04:35:56.705Z,30
2018-07-05T04:36:56.965Z,30
2018-07-05T04:37:56.163Z,30
2018-07-05T04:38:56.684Z,35
2018-07-05T04:39:56.391Z,35
2018-07-05T04:40:56.382Z,35
2018-07-05T04:41:56.639Z,35
2018-07-05T04:42:56.629Z,40
2018-07-05T04:43:56.080Z,45
2018-07-05T04:44:56.884Z,45
2018-07-05T04:45:56.860Z,45
2018-07-05T04:46:56.322Z,50
2018-07-05T04:47:56.366Z,55
2018-07-05T04:48:56.563Z,55
2018-07-05T04:49:56.558Z,60
2018-07-05T04:50:56.539Z,70
2018-07-05T04:51:56.531Z,65
2018-07-05T04:52:56.519Z,65
2018-07-05T04:53:55.982Z,60
2018-07-05T04:54:56.757Z,60
2018-07-05T04:55:56.765Z,60
2018-07-05T04:56:56.478Z,60
2018-07-05T04:57:56.736Z,60
2018-07-05T04:58:56.462Z,65
2018-07-05T04:59:56.707Z,65
2018-07-05T05:00:56.446Z,65
2018-07-05T05:01:56.424Z,65
2018-07-05T05:02:56.419Z,65
2018-07-05T05:03:56.147Z,65
2018-07-05T05:04:56.386Z,65
2018-07-05T05:05:56.396Z,60
2018-07-05T05:06:56.378Z,60
2018-07-05T05:07:56.361Z,60
2018-07-05T05:08:56.588Z,65
2018-07-05T05:09:56.079Z,65
2018-07-05T05:10:55.813Z,65
2018-07-05T05:11:56.319Z,65
2018-07-05T05:12:56.319Z,60
2018-07-05T05:13:56.038Z,60
2018-07-05T05:14:56.100Z,60
2018-07-05T05:15:56.294Z,55
2018-07-05T05:16:56.271Z,55
2018-07-05T05:17:55.995Z,50
2018-07-05T05:18:56.124Z,50
2018-07-05T05:19:56.514Z,50
2018-07-05T05:20:56.228Z,50
2018-07-05T05:21:56.491Z,50
2018-07-05T05:22:55.687Z,50
2018-07-05T05:23:56.196Z,50
2018-07-05T05:24:55.927Z,55
2018-07-05T05:25:56.190Z,55
2018-07-05T05:26:56.178Z,60
2018-07-05T05:27:56.169Z,60
2018-07-05T05:28:55.893Z,60
2018-07-05T05:29:55.947Z,60
2018-07-05T05:30:56.401Z,60
2018-07-05T05:31:56.136Z,60
2018-07-05T05:32:56.110Z,60
2018-07-05T05:33:56.378Z,65
2018-07-05T05:34:55.829Z,65
2018-07-05T05:35:56.353Z,70
2018-07-05T05:36:56.081Z,70
2018-07-05T05:37:55.544Z,70
2018-07-05T05:38:55.574Z,70
2018-07-05T05:39:56.323Z,70
2018-07-05T05:40:55.773Z,70
2018-07-05T05:41:55.808Z,65
2018-07-05T05:42:55.765Z,65
2018-07-05T05:43:56.276Z,70
2018-07-05T05:44:55.744Z,70
2018-07-05T05:45:56.008Z,75
2018-07-05T05:46:56.243Z,85
2018-07-05T05:47:56.154Z,90
2018-07-05T05:48:56.226Z,90
2018-07-05T05:49:55.959Z,95
2018-07-05T05:50:55.678Z,95
2018-07-05T05:51:55.410Z,95
2018-07-05T05:52:55.664Z,95
2018-07-05T05:53:55.920Z,90
2018-07-05T05:54:55.637Z,95
2018-07-05T05:55:55.369Z,95
2018-07-05T05:56:56.154Z,100
2018-07-05T05:57:55.628Z,100
2018-07-05T05:58:55.607Z,100
2018-07-05T05:59:56.124Z,95
2018-07-05T06:00:55.618Z,95
2018-07-05T06:01:56.105Z,90
2018-07-05T06:02:55.576Z,85
2018-07-05T06:03:55.830Z,85
2018-07-05T06:04:55.813Z,85
2018-07-05T06:05:55.542Z,85
2018-07-05T06:06:55.808Z,90
2018-07-05T06:07:56.051Z,90
2018-07-05T06:08:55.255Z,95
2018-07-05T06:09:55.237Z,100
2018-07-05T06:10:55.769Z,105
2018-07-05T06:11:56.022Z,105
2018-07-05T06:12:55.739Z,110
2018-07-05T06:13:55.475Z,110
2018-07-05T06:14:55.470Z,110
2018-07-05T06:15:55.722Z,110
2018-07-05T06:16:55.975Z,110
2018-07-05T06:17:55.170Z,115
2018-07-05T06:18:55.958Z,120
2018-07-05T06:19:55.412Z,150
2018-07-05T06:20:55.668Z,145
2018-07-05T06:21:55.662Z,125
2018-07-05T06:22:55.652Z,130
2018-07-05T06:23:55.115Z,195
2018-07-05T06:24:55.371Z,275
2018-07-05T06:25:55.615Z,315
2018-07-05T06:26:55.883Z,270
2018-07-05T06:27:55.081Z,175
2018-07-05T06:28:55.606Z,155
2018-07-05T06:29:55.061Z,150
2018-07-05T06:30:55.328Z,155
2018-07-05T06:31:55.575Z,160
2018-07-05T06:32:55.829Z,165
2018-07-05T06:33:55.027Z,175
2018-07-05T06:34:55.816Z,180
2018-07-05T06:35:55.794Z,190
2018-07-05T06:36:55.027Z,190
2018-07-05T06:37:55.320Z,180
2018-07-05T06:38:55.262Z,175
2018-07-05T06:39:55.519Z,165
2018-07-05T06:40:55.506Z,160
2018-07-05T06:41:55.227Z,160
2018-07-05T06:42:55.218Z,165
2018-07-05T06:43:55.210Z,170
2018-07-05T06:44:55.204Z,175
2018-07-05T06:45:55.452Z,180
2018-07-05T06:46:55.732Z,185
2018-07-05T06:47:54.920Z,185
2018-07-05T06:48:55.183Z,190
2018-07-05T06:49:55.156Z,195
2018-07-05T06:50:55.426Z,195
2018-07-05T06:51:55.418Z,195
2018-07-05T06:52:55.504Z,190
2018-07-05T06:53:55.143Z,185
2018-07-05T06:54:55.398Z,180
2018-07-05T06:55:55.383Z,175
2018-07-05T06:56:55.371Z,175
2018-07-05T06:57:55.368Z,175
2018-07-05T06:58:55.350Z,165
2018-07-05T06:59:55.351Z,160
2018-07-05T07:00:54.813Z,150
2018-07-05T07:01:55.072Z,145
2018-07-05T07:02:55.060Z,140
2018-07-05T07:03:55.061Z,140
2018-07-05T07:04:55.055Z,140
2018-07-05T07:05:55.034Z,145
2018-07-05T07:06:54.768Z,145
2018-07-05T07:07:55.286Z,150
2018-07-05T07:08:55.279Z,155
2018-07-05T07:09:55.004Z,160
2018-07-05T07:10:54.999Z,160
2018-07-05T07:11:55.002Z,170
2018-07-05T07:12:54.986Z,170
2018-07-05T07:13:54.976Z,175
2018-07-05T07:14:54.972Z,180
2018-07-05T07:15:55.565Z,180
2018-07-05T07:16:55.507Z,190
2018-07-05T07:17:55.210Z,190
2018-07-05T07:18:54.942Z,220
2018-07-05T07:19:54.934Z,210
2018-07-05T07:20:55.196Z,305
2018-07-05T07:21:55.194Z,235
2018-07-05T07:22:54.907Z,235
2018-07-05T07:23:54.900Z,210
2018-07-05T07:24:55.420Z,230
2018-07-05T07:25:54.893Z,245
2018-07-05T07:26:55.412Z,195
2018-07-05T07:27:55.141Z,260
2018-07-05T07:28:54.863Z,250
2018-07-05T07:29:55.381Z,185
2018-07-05T07:30:55.375Z,190
2018-07-05T07:31:55.518Z,195
2018-07-05T07:32:54.573Z,185
2018-07-05T07:33:54.856Z,190
2018-07-05T07:34:55.364Z,210
2018-07-05T07:35:54.822Z,195
2018-07-05T07:36:54.816Z,200
2018-07-05T07:37:55.070Z,210
2018-07-05T07:38:55.323Z,240
2018-07-05T07:39:55.058Z,265
2018-07-05T07:40:55.319Z,285
2018-07-05T07:41:54.774Z,350
2018-07-05T07:42:55.252Z,330
2018-07-05T07:43:54.774Z,310
2018-07-05T07:44:55.288Z,325
2018-07-05T07:45:55.236Z,320
2018-07-05T07:46:54.737Z,320
2018-07-05T07:47:54.728Z,275
2018-07-05T07:48:54.732Z,295
2018-07-05T07:49:54.717Z,270
2018-07-05T07:50:54.964Z,270
2018-07-05T07:51:54.974Z,275
2018-07-05T07:52:55.222Z,335
2018-07-05T07:53:54.965Z,420
2018-07-05T07:54:54.967Z,395
2018-07-05T07:55:54.692Z,480
2018-07-05T07:56:54.949Z,415
2018-07-05T07:57:54.923Z,300
2018-07-05T07:58:54.664Z,340
2018-07-05T07:59:54.656Z,435
2018-07-05T08:00:55.168Z,445
2018-07-05T08:01:54.897Z,455
2018-07-05T08:02:54.646Z,470
2018-07-05T08:03:55.158Z,510
2018-07-05T08:04:54.624Z,540
2018-07-05T08:05:54.362Z,475
2018-07-05T08:06:55.142Z,465
2018-07-05T08:07:54.742Z,445
2018-07-05T08:08:54.871Z,470
2018-07-05T08:09:54.856Z,550
2018-07-05T08:10:54.592Z,560
2018-07-05T08:11:54.319Z,655
2018-07-05T08:12:54.859Z,700
2018-07-05T08:13:54.579Z,625
2018-07-05T08:14:54.314Z,600
2018-07-05T08:15:54.050Z,615
2018-07-05T08:16:55.443Z,685
2018-07-05T08:17:54.847Z,705
2018-07-05T08:18:54.830Z,680
2018-07-05T08:19:54.561Z,680
2018-07-05T08:20:54.554Z,665
2018-07-05T08:21:54.803Z,615
2018-07-05T08:22:54.558Z,575
2018-07-05T08:23:54.815Z,580
2018-07-05T08:24:54.795Z,585
2018-07-05T08:25:55.049Z,635
2018-07-05T08:26:54.531Z,760
2018-07-05T08:27:54.788Z,855
2018-07-05T08:28:54.802Z,845
2018-07-05T08:29:55.087Z,815
2018-07-05T08:30:54.256Z,675
2018-07-05T08:31:54.257Z,620
2018-07-05T08:32:54.512Z,430
2018-07-05T08:33:54.504Z,500
2018-07-05T08:34:55.041Z,460
2018-07-05T08:35:54.781Z,430
2018-07-05T08:36:54.771Z,465
2018-07-05T08:37:54.336Z,405
2018-07-05T08:38:54.494Z,450
2018-07-05T08:39:55.068Z,435
2018-07-05T08:40:54.758Z,440
2018-07-05T08:41:54.757Z,355
2018-07-05T08:42:55.009Z,300
2018-07-05T08:43:54.747Z,295
2018-07-05T08:44:55.402Z,285
2018-07-05T08:45:54.474Z,280
2018-07-05T08:46:54.996Z,275
2018-07-05T08:47:54.726Z,300
2018-07-05T08:48:54.741Z,335
2018-07-05T08:49:54.723Z,295
2018-07-05T08:50:54.725Z,290
2018-07-05T08:51:54.725Z,350
2018-07-05T08:52:54.978Z,505
2018-07-05T08:53:54.445Z,310
2018-07-05T08:54:54.709Z,450
2018-07-05T08:55:54.711Z,285
2018-07-05T08:56:54.713Z,600
2018-07-05T08:57:54.961Z,1275
2018-07-05T08:58:54.698Z,1055
2018-07-05T08:59:54.432Z,1315
2018-07-05T09:00:54.684Z,1235
2018-07-05T09:01:54.688Z,1250
2018-07-05T09:02:54.431Z,1220
2018-07-05T09:03:54.682Z,1195
2018-07-05T09:04:54.946Z,1250
2018-07-05T09:05:54.685Z,1315
2018-07-05T09:06:54.149Z,1360
2018-07-05T09:07:54.427Z,1410
2018-07-05T09:08:54.681Z,1450
2018-07-05T09:09:54.677Z,1470
2018-07-05T09:10:54.416Z,1500
2018-07-05T09:11:55.103Z,1550
2018-07-05T09:12:54.679Z,1500
2018-07-05T09:13:53.885Z,1460
2018-07-05T09:14:54.426Z,1375
2018-07-05T09:15:54.685Z,1185
2018-07-05T09:16:54.683Z,965
2018-07-05T09:17:55.450Z,795
2018-07-05T09:18:54.421Z,885
2018-07-05T09:19:54.681Z,895
2018-07-05T09:20:54.948Z,635
2018-07-05T09:21:54.695Z,535
2018-07-05T09:22:54.426Z,635
2018-07-05T09:23:54.570Z,800
2018-07-05T09:24:54.435Z,545
2018-07-05T09:25:54.705Z,630
2018-07-05T09:26:54.715Z,585
2018-07-05T09:27:53.903Z,745
2018-07-05T09:28:54.431Z,695
2018-07-05T09:29:54.695Z,670
2018-07-05T09:30:54.703Z,550
2018-07-05T09:31:54.430Z,355
2018-07-05T09:32:54.973Z,760
2018-07-05T09:33:54.959Z,750
2018-07-05T09:34:54.961Z,795
2018-07-05T09:35:54.441Z,850
2018-07-05T09:36:54.972Z,950
2018-07-05T09:37:54.702Z,1230
2018-07-05T09:38:54.688Z,1245
2018-07-05T09:39:54.440Z,1160
2018-07-05T09:40:54.167Z,1210
2018-07-05T09:41:54.430Z,1245
2018-07-05T09:42:54.392Z,870
2018-07-05T09:43:54.715Z,710
2018-07-05T09:44:54.439Z,580
2018-07-05T09:45:54.431Z,430
2018-07-05T09:46:54.780Z,385
2018-07-05T09:47:54.510Z,395
2018-07-05T09:48:54.711Z,425
2018-07-05T09:49:54.719Z,400
2018-07-05T09:50:54.437Z,425
2018-07-05T09:51:54.439Z,500
2018-07-05T09:52:55.549Z,500
2018-07-05T09:53:54.696Z,530
2018-07-05T09:54:54.178Z,460
2018-07-05T09:55:54.164Z,465
2018-07-05T09:56:54.698Z,475
2018-07-05T09:57:55.002Z,470
2018-07-05T09:58:54.441Z,470
2018-07-05T09:59:54.169Z,470
2018-07-05T10:00:54.170Z,460
2018-07-05T10:01:54.691Z,465
2018-07-05T10:02:54.951Z,460
2018-07-05T10:03:55.555Z,485
2018-07-05T10:04:54.684Z,490
2018-07-05T10:05:54.691Z,530
2018-07-05T10:06:54.951Z,485
2018-07-05T10:07:54.699Z,535
2018-07-05T10:08:54.424Z,520
2018-07-05T10:09:54.419Z,510
2018-07-05T10:10:54.679Z,525
2018-07-05T10:11:54.423Z,515
2018-07-05T10:12:54.689Z,595
2018-07-05T10:13:56.813Z,565
2018-07-05T10:14:54.665Z,555
2018-07-05T10:15:54.414Z,625
2018-07-05T10:16:54.404Z,620
2018-07-05T10:17:54.930Z,650
2018-07-05T10:18:54.409Z,695
2018-07-05T10:19:54.933Z,1220
2018-07-05T10:20:54.396Z,1035
2018-07-05T10:21:54.123Z,715
2018-07-05T10:22:54.410Z,490
2018-07-05T10:23:54.660Z,445
2018-07-05T10:24:54.647Z,420
2018-07-05T10:25:54.647Z,400
2018-07-05T10:26:54.755Z,385
2018-07-05T10:27:53.854Z,375
2018-07-05T10:28:54.915Z,350
2018-07-05T10:29:54.374Z,325
2018-07-05T10:30:54.107Z,305
2018-07-05T10:31:54.644Z,305
2018-07-05T10:32:54.842Z,295
2018-07-05T10:33:54.651Z,290
2018-07-05T10:34:54.371Z,295
2018-07-05T10:35:54.641Z,295
2018-07-05T10:36:54.623Z,295
2018-07-05T10:37:54.102Z,295
2018-07-05T10:38:54.624Z,275
2018-07-05T10:39:54.492Z,250
2018-07-05T10:40:54.637Z,230
2018-07-05T10:41:54.884Z,210
2018-07-05T10:42:54.875Z,200
2018-07-05T10:43:54.347Z,190
2018-07-05T10:44:54.610Z,185
2018-07-05T10:45:54.876Z,190
2018-07-05T10:46:54.880Z,195
2018-07-05T10:47:54.869Z,205
2018-07-05T10:48:54.609Z,215
2018-07-05T10:49:54.063Z,225
2018-07-05T10:50:54.332Z,230
2018-07-05T10:51:54.326Z,230
2018-07-05T10:52:54.330Z,240
2018-07-05T10:53:54.594Z,250
2018-07-05T10:54:54.311Z,250
2018-07-05T10:55:54.059Z,255
2018-07-05T10:56:54.062Z,260
2018-07-05T10:57:54.571Z,260
2018-07-05T10:58:54.311Z,310
2018-07-05T10:59:54.563Z,265
2018-07-05T11:00:54.561Z,255
2018-07-05T11:01:54.571Z,250
2018-07-05T11:02:54.553Z,240
2018-07-05T11:03:54.296Z,245
2018-07-05T11:04:54.541Z,245
2018-07-05T11:05:54.553Z,255
2018-07-05T11:06:54.279Z,315
2018-07-05T11:07:54.537Z,275
2018-07-05T11:08:54.001Z,285
2018-07-05T11:09:54.525Z,285
2018-07-05T11:10:54.260Z,280
2018-07-05T11:11:54.263Z,270
2018-07-05T11:12:54.782Z,275
2018-07-05T11:13:54.517Z,280
2018-07-05T11:14:54.537Z,300
2018-07-05T11:15:54.509Z,325
2018-07-05T11:16:54.962Z,355
2018-07-05T11:17:54.236Z,445
2018-07-05T11:18:54.767Z,460
2018-07-05T11:19:53.966Z,520
2018-07-05T11:20:54.585Z,1020
2018-07-05T11:21:54.230Z,595
2018-07-05T11:22:54.223Z,600
2018-07-05T11:23:54.218Z,615
2018-07-05T11:24:54.743Z,825
2018-07-05T11:25:54.741Z,515
2018-07-05T11:26:54.209Z,435
2018-07-05T11:27:54.464Z,395
2018-07-05T11:28:54.474Z,365
2018-07-05T11:29:54.465Z,365
2018-07-05T11:30:54.191Z,380
2018-07-05T11:31:54.456Z,480
2018-07-05T11:32:54.717Z,410
2018-07-05T11:33:54.196Z,375
2018-07-05T11:34:54.461Z,385
2018-07-05T11:35:54.719Z,435
2018-07-05T11:36:53.915Z,455
2018-07-05T11:37:54.570Z,440
2018-07-05T11:38:53.907Z,435
2018-07-05T11:39:54.442Z,390
2018-07-05T11:40:54.699Z,395
2018-07-05T11:41:54.421Z,550
2018-07-05T11:42:55.088Z,535
2018-07-05T11:43:54.421Z,430
2018-07-05T11:44:53.887Z,425
2018-07-05T11:45:54.419Z,410
2018-07-05T11:46:54.723Z,410
2018-07-05T11:47:54.561Z,420
2018-07-05T11:48:54.154Z,440
2018-07-05T11:49:54.147Z,470
2018-07-05T11:50:54.154Z,495
2018-07-05T11:51:53.879Z,520
2018-07-05T11:52:54.406Z,555
2018-07-05T11:53:54.394Z,435
2018-07-05T11:54:54.655Z,410
2018-07-05T11:55:53.603Z,470
2018-07-05T11:56:54.409Z,660
2018-07-05T11:57:54.380Z,990
2018-07-05T11:58:54.265Z,795
2018-07-05T11:59:54.663Z,900
2018-07-05T12:00:54.408Z,855
2018-07-05T12:01:53.900Z,1120
2018-07-05T12:02:54.898Z,1125
2018-07-05T12:03:54.649Z,1080
2018-07-05T12:04:54.397Z,715
2018-07-05T12:05:54.659Z,1090
2018-07-05T12:06:54.417Z,875
2018-07-05T12:07:54.117Z,605
2018-07-05T12:08:54.252Z,915
2018-07-05T12:09:54.107Z,1035
2018-07-05T12:10:54.647Z,1175
2018-07-05T12:11:54.109Z,1235
2018-07-05T12:12:54.651Z,1105
2018-07-05T12:13:53.583Z,1235
2018-07-05T12:14:54.122Z,1205
2018-07-05T12:15:54.376Z,1220
2018-07-05T12:16:54.380Z,1215
2018-07-05T12:17:53.854Z,1240
2018-07-05T12:18:54.659Z,1215
2018-07-05T12:19:54.655Z,1200
2018-07-05T12:20:54.653Z,1115
2018-07-05T12:21:54.129Z,825
2018-07-05T12:22:54.670Z,920
2018-07-05T12:23:54.182Z,625
2018-07-05T12:24:54.133Z,595
2018-07-05T12:25:54.137Z,570
2018-07-05T12:26:54.399Z,555
2018-07-05T12:27:53.889Z,455
2018-07-05T12:28:54.689Z,415
2018-07-05T12:29:54.147Z,385
2018-07-05T12:30:54.409Z,360
2018-07-05T12:31:54.425Z,355
2018-07-05T12:32:54.404Z,365
2018-07-05T12:33:54.161Z,425
2018-07-05T12:34:54.420Z,460
2018-07-05T12:35:54.688Z,450
2018-07-05T12:36:54.693Z,515
2018-07-05T12:37:53.890Z,505
2018-07-05T12:38:54.169Z,485
2018-07-05T12:39:53.906Z,745
2018-07-05T12:40:54.424Z,845
2018-07-05T12:41:54.422Z,530
2018-07-05T12:42:54.430Z,400
2018-07-05T12:43:54.167Z,335
2018-07-05T12:44:54.164Z,305
2018-07-05T12:45:54.179Z,305
2018-07-05T12:46:54.441Z,345
2018-07-05T12:47:53.905Z,395
2018-07-05T12:48:53.898Z,390
2018-07-05T12:49:54.428Z,410
2018-07-05T12:50:54.426Z,415
2018-07-05T12:51:54.029Z,415
2018-07-05T12:52:54.458Z,485
2018-07-05T12:53:54.694Z,375
2018-07-05T12:54:53.634Z,355
2018-07-05T12:55:54.165Z,345
2018-07-05T12:56:54.162Z,350
2018-07-05T12:57:54.439Z,385
2018-07-05T12:58:54.167Z,835
2018-07-05T12:59:54.438Z,485
2018-07-05T13:00:54.433Z,530
2018-07-05T13:01:54.423Z,580
2018-07-05T13:02:54.435Z,630
2018-07-05T13:03:54.469Z,1025
2018-07-05T13:04:54.191Z,995
2018-07-05T13:05:54.439Z,1625
2018-07-05T13:06:54.479Z,1530
2018-07-05T13:07:54.688Z,1100
2018-07-05T13:08:54.153Z,1335
2018-07-05T13:09:54.712Z,960
2018-07-05T13:10:53.896Z,740
2018-07-05T13:11:54.741Z,1665
2018-07-05T13:12:54.340Z,1625
2018-07-05T13:13:54.157Z,1590
2018-07-05T13:14:54.432Z,1565
2018-07-05T13:15:54.165Z,1585
2018-07-05T13:16:54.699Z,1610
2018-07-05T13:17:54.164Z,1575
2018-07-05T13:18:54.172Z,1590
2018-07-05T13:19:54.435Z,1550
2018-07-05T13:20:54.440Z,1580
2018-07-05T13:21:54.169Z,1525
2018-07-05T13:22:54.184Z,1495
2018-07-05T13:23:54.449Z,1530
2018-07-05T13:24:54.713Z,1575
2018-07-05T13:25:54.193Z,1535
2018-07-05T13:26:54.197Z,1270
2018-07-05T13:27:54.205Z,1190
2018-07-05T13:28:53.939Z,1015
2018-07-05T13:29:54.470Z,960
2018-07-05T13:30:54.740Z,1295
2018-07-05T13:31:54.481Z,1260
2018-07-05T13:32:54.227Z,1445
2018-07-05T13:33:54.495Z,1445
2018-07-05T13:34:54.760Z,1445
2018-07-05T13:35:54.505Z,1485
2018-07-05T13:36:54.504Z,1555
2018-07-05T13:37:54.777Z,1550
2018-07-05T13:38:54.243Z,1445
2018-07-05T13:39:54.423Z,1365
2018-07-05T13:40:54.528Z,1355
2018-07-05T13:41:54.814Z,1225
2018-07-05T13:42:54.317Z,690
2018-07-05T13:43:54.546Z,750
2018-07-05T13:44:54.554Z,890
2018-07-05T13:45:55.034Z,1170
2018-07-05T13:46:54.789Z,1160
2018-07-05T13:47:54.041Z,1230
2018-07-05T13:48:54.563Z,1290
2018-07-05T13:49:54.044Z,1315
2018-07-05T13:50:54.573Z,1270
2018-07-05T13:51:54.320Z,1240
2018-07-05T13:52:54.588Z,1225
2018-07-05T13:53:54.389Z,1305
2018-07-05T13:54:54.333Z,1285
2018-07-05T13:55:54.113Z,1365
2018-07-05T13:56:54.604Z,1400
2018-07-05T13:57:54.360Z,1310
2018-07-05T13:58:54.898Z,930
2018-07-05T13:59:54.628Z,560
2018-07-05T14:00:54.366Z,785
2018-07-05T14:01:54.906Z,1370
2018-07-05T14:02:54.692Z,1300